Joselito — CUHF9 — position and weather

sailwx.info

Track history (hours):
 
Tides and Currents Weather Stations Pressure Air Temp Water Temp Dewpoint Dewpoint Depression Visibility Wind Speed Wind Dir Waves Ship Positions

Joselito

Last reported at 2018-Apr-25 05:29 UTC. Time now 2018-Apr-25 06:55 UTC.
Position N 38°30' W 009°16'.

Length 14 m.

Type: Fishing. MMSI: 263402280.

Date/timePositionNaut miles runAvg speedWind from/ knotsBaromVisibWave heightAir tempDewpointWater temp
2018-Apr-25 05:29N 38°30' W 009°16'0 0.7
2018-Apr-25 05:00N 38°31' W 009°16'0 0.8
2018-Apr-25 04:30N 38°31' W 009°16'0 0.9
2018-Apr-25 03:58N 38°31' W 009°16'0 0.9
2018-Apr-25 03:30N 38°32' W 009°16'20 0.4
2018-Apr-23 02:53N 38°44' W 009°37'1 1.6
2018-Apr-23 02:30N 38°43' W 009°37'1 1.6
2018-Apr-23 02:00N 38°42' W 009°37'1 2.1
2018-Apr-23 01:30N 38°41' W 009°36'1 2.0
2018-Apr-23 01:00N 38°41' W 009°36'1 1.9
2018-Apr-23 00:30N 38°40' W 009°35'1 1.7
2018-Apr-23 00:00N 38°39' W 009°34'1 1.6
2018-Apr-22 23:30N 38°38' W 009°34'1 1.4
2018-Apr-22 23:00N 38°38' W 009°34'1 1.5
2018-Apr-22 22:30N 38°37' W 009°33'1 2.0
2018-Apr-22 22:00N 38°37' W 009°35'  
2018-Apr-19 05:03N 38°48' W 009°37'0 0.5
2018-Apr-19 05:01N 38°48' W 009°37'0 0.3
2018-Apr-19 04:31N 38°48' W 009°37'0 0.2
2018-Apr-19 04:00N 38°48' W 009°37'0 0.1
2018-Apr-19 03:30N 38°48' W 009°37'0 0.2
2018-Apr-19 03:01N 38°48' W 009°37'0 0.2
2018-Apr-19 02:31N 38°48' W 009°37'0 0.2
2018-Apr-19 02:00N 38°48' W 009°37'4 0.1
2018-Apr-17 04:39N 38°45' W 009°36'0 0.3
2018-Apr-17 04:30N 38°45' W 009°36'0 0.3
2018-Apr-17 04:00N 38°44' W 009°36'0 0.3
2018-Apr-17 03:30N 38°44' W 009°36'0 0.4
2018-Apr-17 03:00N 38°44' W 009°36'0 0.4
2018-Apr-17 02:30N 38°44' W 009°37'0 0.5
2018-Apr-17 02:00N 38°44' W 009°37'3 0.1
2018-Apr-15 14:38N 38°41' W 009°39'0 0.4
2018-Apr-15 14:29N 38°41' W 009°39'  
Track history (hours):
 
Tides and Currents Weather Stations Pressure Air Temp Water Temp Dewpoint Dewpoint Depression Visibility Wind Speed Wind Dir Waves Ship Positions

Joselito

Last reported at 2018-Apr-25 05:29 UTC. Time now 2018-Apr-25 06:55 UTC.
Position N 38°30' W 009°16'.

Length 14 m.

Type: Fishing. MMSI: 263402280.

Date/timePositionNaut miles runAvg speedWind from/ knotsBaromVisibWave heightAir tempDewpointWater temp
2018-Apr-25 05:29N 38°30' W 009°16'0 0.7
2018-Apr-25 05:00N 38°31' W 009°16'0 0.8
2018-Apr-25 04:30N 38°31' W 009°16'0 0.9
2018-Apr-25 03:58N 38°31' W 009°16'0 0.9
2018-Apr-25 03:30N 38°32' W 009°16'20 0.4
2018-Apr-23 02:53N 38°44' W 009°37'1 1.6
2018-Apr-23 02:30N 38°43' W 009°37'1 1.6
2018-Apr-23 02:00N 38°42' W 009°37'1 2.1
2018-Apr-23 01:30N 38°41' W 009°36'1 2.0
2018-Apr-23 01:00N 38°41' W 009°36'1 1.9
2018-Apr-23 00:30N 38°40' W 009°35'1 1.7
2018-Apr-23 00:00N 38°39' W 009°34'1 1.6
2018-Apr-22 23:30N 38°38' W 009°34'1 1.4
2018-Apr-22 23:00N 38°38' W 009°34'1 1.5
2018-Apr-22 22:30N 38°37' W 009°33'1 2.0
2018-Apr-22 22:00N 38°37' W 009°35'  
2018-Apr-19 05:03N 38°48' W 009°37'0 0.5
2018-Apr-19 05:01N 38°48' W 009°37'0 0.3
2018-Apr-19 04:31N 38°48' W 009°37'0 0.2
2018-Apr-19 04:00N 38°48' W 009°37'0 0.1
2018-Apr-19 03:30N 38°48' W 009°37'0 0.2
2018-Apr-19 03:01N 38°48' W 009°37'0 0.2
2018-Apr-19 02:31N 38°48' W 009°37'0 0.2
2018-Apr-19 02:00N 38°48' W 009°37'4 0.1
2018-Apr-17 04:39N 38°45' W 009°36'0 0.3
2018-Apr-17 04:30N 38°45' W 009°36'0 0.3
2018-Apr-17 04:00N 38°44' W 009°36'0 0.3
2018-Apr-17 03:30N 38°44' W 009°36'0 0.4
2018-Apr-17 03:00N 38°44' W 009°36'0 0.4
2018-Apr-17 02:30N 38°44' W 009°37'0 0.5
2018-Apr-17 02:00N 38°44' W 009°37'3 0.1
2018-Apr-15 14:38N 38°41' W 009°39'0 0.4
2018-Apr-15 14:29N 38°41' W 009°39'  

Dump ship's entire track history